sensor_id;sensor_type;location;lat;lon;timestamp;temperature;humidity
69225;DHT22;56333;51.306;17.056;2023-02-02T00:00:05;4.41;82.20
69225;DHT22;56333;51.306;17.056;2023-02-02T00:01:58;4.44;82.28
69225;DHT22;56333;51.306;17.056;2023-02-02T00:03:27;4.44;82.30
69225;DHT22;56333;51.306;17.056;2023-02-02T00:04:56;4.45;82.20
69225;DHT22;56333;51.306;17.056;2023-02-02T00:06:26;4.45;82.15
69225;DHT22;56333;51.306;17.056;2023-02-02T00:07:57;4.45;82.00
69225;DHT22;56333;51.306;17.056;2023-02-02T00:09:27;4.43;81.93
69225;DHT22;56333;51.306;17.056;2023-02-02T00:10:57;4.43;81.85
69225;DHT22;56333;51.306;17.056;2023-02-02T00:12:26;4.42;81.82
69225;DHT22;56333;51.306;17.056;2023-02-02T00:13:55;4.42;81.88
69225;DHT22;56333;51.306;17.056;2023-02-02T00:15:25;4.44;82.00
69225;DHT22;56333;51.306;17.056;2023-02-02T00:16:54;4.45;82.03
69225;DHT22;56333;51.306;17.056;2023-02-02T00:18:23;4.46;82.00
69225;DHT22;56333;51.306;17.056;2023-02-02T00:19:53;4.45;81.90
69225;DHT22;56333;51.306;17.056;2023-02-02T00:21:22;4.45;81.70
69225;DHT22;56333;51.306;17.056;2023-02-02T00:22:52;4.45;81.70
69225;DHT22;56333;51.306;17.056;2023-02-02T00:24:22;4.44;81.60
69225;DHT22;56333;51.306;17.056;2023-02-02T00:25:53;4.43;81.45
69225;DHT22;56333;51.306;17.056;2023-02-02T00:27:22;4.41;81.50
69225;DHT22;56333;51.306;17.056;2023-02-02T00:28:51;4.41;81.70
69225;DHT22;56333;51.306;17.056;2023-02-02T00:30:20;4.43;81.80
69225;DHT22;56333;51.306;17.056;2023-02-02T00:31:50;4.45;81.90
69225;DHT22;56333;51.306;17.056;2023-02-02T00:33:19;4.48;81.95
69225;DHT22;56333;51.306;17.056;2023-02-02T00:34:48;4.47;81.90
69225;DHT22;56333;51.306;17.056;2023-02-02T00:36:17;4.50;81.80
69225;DHT22;56333;51.306;17.056;2023-02-02T00:37:47;4.49;81.60
69225;DHT22;56333;51.306;17.056;2023-02-02T00:39:18;4.49;81.47
69225;DHT22;56333;51.306;17.056;2023-02-02T00:40:49;4.51;81.30
69225;DHT22;56333;51.306;17.056;2023-02-02T00:42:18;4.48;81.32
69225;DHT22;56333;51.306;17.056;2023-02-02T00:43:47;4.47;81.15
69225;DHT22;56333;51.306;17.056;2023-02-02T00:45:30;4.47;81.22
69225;DHT22;56333;51.306;17.056;2023-02-02T00:46:59;4.47;81.28
69225;DHT22;56333;51.306;17.056;2023-02-02T00:48:28;4.47;81.32
69225;DHT22;56333;51.306;17.056;2023-02-02T00:49:58;4.48;81.40
69225;DHT22;56333;51.306;17.056;2023-02-02T00:51:27;4.50;81.30
69225;DHT22;56333;51.306;17.056;2023-02-02T00:52:55;4.49;81.13
69225;DHT22;56333;51.306;17.056;2023-02-02T00:54:24;4.51;81.00
69225;DHT22;56333;51.306;17.056;2023-02-02T00:55:53;4.51;80.90
69225;DHT22;56333;51.306;17.056;2023-02-02T00:57:23;4.48;80.78
69225;DHT22;56333;51.306;17.056;2023-02-02T00:58:52;4.47;80.75
69225;DHT22;56333;51.306;17.056;2023-02-02T01:00:22;4.46;80.90
69225;DHT22;56333;51.306;17.056;2023-02-02T01:01:52;4.48;80.93
69225;DHT22;56333;51.306;17.056;2023-02-02T01:03:21;4.49;80.97
69225;DHT22;56333;51.306;17.056;2023-02-02T01:04:50;4.50;80.72
69225;DHT22;56333;51.306;17.056;2023-02-02T01:06:19;4.49;80.57
69225;DHT22;56333;51.306;17.056;2023-02-02T01:07:49;4.49;80.50
69225;DHT22;56333;51.306;17.056;2023-02-02T01:09:17;4.49;80.35
69225;DHT22;56333;51.306;17.056;2023-02-02T01:10:47;4.49;80.20
69225;DHT22;56333;51.306;17.056;2023-02-02T01:12:16;4.47;80.15
69225;DHT22;56333;51.306;17.056;2023-02-02T01:13:46;4.47;80.22
69225;DHT22;56333;51.306;17.056;2023-02-02T01:15:15;4.46;80.40
69225;DHT22;56333;51.306;17.056;2023-02-02T01:16:44;4.47;80.53
69225;DHT22;56333;51.306;17.056;2023-02-02T01:18:13;4.49;80.57
69225;DHT22;56333;51.306;17.056;2023-02-02T01:19:42;4.49;80.57
69225;DHT22;56333;51.306;17.056;2023-02-02T01:21:12;4.49;80.43
69225;DHT22;56333;51.306;17.056;2023-02-02T01:22:40;4.51;80.35
69225;DHT22;56333;51.306;17.056;2023-02-02T01:24:09;4.49;80.28
69225;DHT22;56333;51.306;17.056;2023-02-02T01:25:38;4.48;80.20
69225;DHT22;56333;51.306;17.056;2023-02-02T01:27:07;4.47;80.25
69225;DHT22;56333;51.306;17.056;2023-02-02T01:28:35;4.49;80.40
69225;DHT22;56333;51.306;17.056;2023-02-02T01:30:08;4.49;80.55
69225;DHT22;56333;51.306;17.056;2023-02-02T01:31:39;4.51;80.60
69225;DHT22;56333;51.306;17.056;2023-02-02T01:33:08;4.50;80.60
69225;DHT22;56333;51.306;17.056;2023-02-02T01:34:37;4.49;80.57
69225;DHT22;56333;51.306;17.056;2023-02-02T01:36:11;4.49;80.45
69225;DHT22;56333;51.306;17.056;2023-02-02T01:37:42;4.47;80.47
69225;DHT22;56333;51.306;17.056;2023-02-02T01:39:11;4.47;80.40
69225;DHT22;56333;51.306;17.056;2023-02-02T01:40:44;4.48;80.38
69225;DHT22;56333;51.306;17.056;2023-02-02T01:42:21;4.47;80.45
69225;DHT22;56333;51.306;17.056;2023-02-02T01:43:53;4.47;80.60
69225;DHT22;56333;51.306;17.056;2023-02-02T01:45:26;4.49;80.78
69225;DHT22;56333;51.306;17.056;2023-02-02T01:46:56;4.51;80.90
69225;DHT22;56333;51.306;17.056;2023-02-02T01:48:29;4.55;80.78
69225;DHT22;56333;51.306;17.056;2023-02-02T01:50:01;4.55;80.60
69225;DHT22;56333;51.306;17.056;2023-02-02T01:51:37;4.55;80.40
69225;DHT22;56333;51.306;17.056;2023-02-02T01:53:07;4.54;80.32
69225;DHT22;56333;51.306;17.056;2023-02-02T01:54:39;4.52;79.85
69225;DHT22;56333;51.306;17.056;2023-02-02T01:56:25;4.50;79.78
69225;DHT22;56333;51.306;17.056;2023-02-02T01:57:59;4.49;79.88
69225;DHT22;56333;51.306;17.056;2023-02-02T01:59:33;4.47;79.78
69225;DHT22;56333;51.306;17.056;2023-02-02T02:01:03;4.48;79.90
69225;DHT22;56333;51.306;17.056;2023-02-02T02:02:33;4.51;80.00
69225;DHT22;56333;51.306;17.056;2023-02-02T02:04:03;4.53;80.03
69225;DHT22;56333;51.306;17.056;2023-02-02T02:05:34;4.52;79.95
69225;DHT22;56333;51.306;17.056;2023-02-02T02:07:07;4.55;80.00
69225;DHT22;56333;51.306;17.056;2023-02-02T02:08:38;4.55;79.90
69225;DHT22;56333;51.306;17.056;2023-02-02T02:10:12;4.57;79.82
69225;DHT22;56333;51.306;17.056;2023-02-02T02:11:41;4.58;79.70
69225;DHT22;56333;51.306;17.056;2023-02-02T02:13:10;4.58;79.60
69225;DHT22;56333;51.306;17.056;2023-02-02T02:14:40;4.56;79.38
69225;DHT22;56333;51.306;17.056;2023-02-02T02:16:45;4.55;79.40
69225;DHT22;56333;51.306;17.056;2023-02-02T02:18:27;4.56;79.50
69225;DHT22;56333;51.306;17.056;2023-02-02T02:23:57;4.62;79.65
69225;DHT22;56333;51.306;17.056;2023-02-02T02:29:06;4.60;79.07
69225;DHT22;56333;51.306;17.056;2023-02-02T02:33:29;4.54;79.00
69225;DHT22;56333;51.306;17.056;2023-02-02T02:35:13;4.53;79.05
69225;DHT22;56333;51.306;17.056;2023-02-02T02:36:53;4.54;79.18
69225;DHT22;56333;51.306;17.056;2023-02-02T02:38:32;4.54;79.30
69225;DHT22;56333;51.306;17.056;2023-02-02T02:40:10;4.55;79.43
69225;DHT22;56333;51.306;17.056;2023-02-02T02:41:49;4.57;79.35
69225;DHT22;56333;51.306;17.056;2023-02-02T02:43:30;4.59;79.28
69225;DHT22;56333;51.306;17.056;2023-02-02T02:45:04;4.60;79.10
69225;DHT22;56333;51.306;17.056;2023-02-02T02:46:36;4.59;78.95
69225;DHT22;56333;51.306;17.056;2023-02-02T02:48:06;4.60;78.97
69225;DHT22;56333;51.306;17.056;2023-02-02T02:49:43;4.60;78.80
69225;DHT22;56333;51.306;17.056;2023-02-02T02:51:43;4.61;78.72
69225;DHT22;56333;51.306;17.056;2023-02-02T02:53:24;4.61;78.68
69225;DHT22;56333;51.306;17.056;2023-02-02T02:54:53;4.61;78.78
69225;DHT22;56333;51.306;17.056;2023-02-02T02:56:28;4.61;78.63
69225;DHT22;56333;51.306;17.056;2023-02-02T02:58:08;4.62;78.68
69225;DHT22;56333;51.306;17.056;2023-02-02T02:59:42;4.63;78.57
69225;DHT22;56333;51.306;17.056;2023-02-02T03:01:22;4.63;78.40
69225;DHT22;56333;51.306;17.056;2023-02-02T03:03:03;4.63;78.38
69225;DHT22;56333;51.306;17.056;2023-02-02T03:04:46;4.62;78.25
69225;DHT22;56333;51.306;17.056;2023-02-02T03:06:26;4.60;78.22
69225;DHT22;56333;51.306;17.056;2023-02-02T03:08:04;4.61;78.13
69225;DHT22;56333;51.306;17.056;2023-02-02T03:09:39;4.60;78.30
69225;DHT22;56333;51.306;17.056;2023-02-02T03:11:12;4.61;78.53
69225;DHT22;56333;51.306;17.056;2023-02-02T03:12:47;4.64;78.68
69225;DHT22;56333;51.306;17.056;2023-02-02T03:14:17;4.66;78.70
69225;DHT22;56333;51.306;17.056;2023-02-02T03:15:46;4.68;78.63
69225;DHT22;56333;51.306;17.056;2023-02-02T03:17:14;4.67;78.43
69225;DHT22;56333;51.306;17.056;2023-02-02T03:18:43;4.66;78.20
69225;DHT22;56333;51.306;17.056;2023-02-02T03:20:13;4.66;78.00
69225;DHT22;56333;51.306;17.056;2023-02-02T03:21:42;4.63;78.03
69225;DHT22;56333;51.306;17.056;2023-02-02T03:23:11;4.60;78.00
69225;DHT22;56333;51.306;17.056;2023-02-02T03:24:41;4.57;77.97
69225;DHT22;56333;51.306;17.056;2023-02-02T03:26:09;4.55;78.07
69225;DHT22;56333;51.306;17.056;2023-02-02T03:27:39;4.54;78.22
69225;DHT22;56333;51.306;17.056;2023-02-02T03:29:07;4.54;78.40
69225;DHT22;56333;51.306;17.056;2023-02-02T03:30:36;4.56;78.57
69225;DHT22;56333;51.306;17.056;2023-02-02T03:32:07;4.58;78.65
69225;DHT22;56333;51.306;17.056;2023-02-02T03:33:37;4.58;78.35
69225;DHT22;56333;51.306;17.056;2023-02-02T03:35:07;4.59;78.20
69225;DHT22;56333;51.306;17.056;2023-02-02T03:36:37;4.56;78.00
69225;DHT22;56333;51.306;17.056;2023-02-02T03:38:06;4.54;77.95
69225;DHT22;56333;51.306;17.056;2023-02-02T03:39:35;4.51;77.93
69225;DHT22;56333;51.306;17.056;2023-02-02T03:41:05;4.51;77.90
69225;DHT22;56333;51.306;17.056;2023-02-02T03:42:34;4.48;77.85
69225;DHT22;56333;51.306;17.056;2023-02-02T03:44:03;4.47;77.95
69225;DHT22;56333;51.306;17.056;2023-02-02T03:45:33;4.47;78.15
69225;DHT22;56333;51.306;17.056;2023-02-02T03:47:04;4.48;78.35
69225;DHT22;56333;51.306;17.056;2023-02-02T03:48:35;4.49;78.53
69225;DHT22;56333;51.306;17.056;2023-02-02T03:50:06;4.52;78.60
69225;DHT22;56333;51.306;17.056;2023-02-02T03:51:36;4.53;78.57
69225;DHT22;56333;51.306;17.056;2023-02-02T03:53:08;4.55;78.53
69225;DHT22;56333;51.306;17.056;2023-02-02T03:54:37;4.53;78.53
69225;DHT22;56333;51.306;17.056;2023-02-02T03:56:06;4.53;78.47
69225;DHT22;56333;51.306;17.056;2023-02-02T03:57:35;4.52;78.40
69225;DHT22;56333;51.306;17.056;2023-02-02T03:59:04;4.51;78.68
69225;DHT22;56333;51.306;17.056;2023-02-02T04:00:33;4.50;78.88
69225;DHT22;56333;51.306;17.056;2023-02-02T04:02:02;4.53;79.05
69225;DHT22;56333;51.306;17.056;2023-02-02T04:03:31;4.53;79.20
69225;DHT22;56333;51.306;17.056;2023-02-02T04:05:00;4.52;79.13
69225;DHT22;56333;51.306;17.056;2023-02-02T04:06:30;4.51;79.05
69225;DHT22;56333;51.306;17.056;2023-02-02T04:07:59;4.52;78.97
69225;DHT22;56333;51.306;17.056;2023-02-02T04:09:27;4.52;78.93
69225;DHT22;56333;51.306;17.056;2023-02-02T04:10:57;4.52;78.75
69225;DHT22;56333;51.306;17.056;2023-02-02T04:12:26;4.51;78.75
69225;DHT22;56333;51.306;17.056;2023-02-02T04:13:55;4.52;78.78
69225;DHT22;56333;51.306;17.056;2023-02-02T04:15:24;4.52;78.85
69225;DHT22;56333;51.306;17.056;2023-02-02T04:16:53;4.54;79.10
69225;DHT22;56333;51.306;17.056;2023-02-02T04:18:22;4.55;79.22
69225;DHT22;56333;51.306;17.056;2023-02-02T04:19:51;4.58;79.15
69225;DHT22;56333;51.306;17.056;2023-02-02T04:21:21;4.58;79.03
69225;DHT22;56333;51.306;17.056;2023-02-02T04:22:50;4.61;78.82
69225;DHT22;56333;51.306;17.056;2023-02-02T04:24:21;4.61;78.68
69225;DHT22;56333;51.306;17.056;2023-02-02T04:25:50;4.61;78.45
69225;DHT22;56333;51.306;17.056;2023-02-02T04:27:20;4.62;78.20
69225;DHT22;56333;51.306;17.056;2023-02-02T04:28:49;4.63;77.95
69225;DHT22;56333;51.306;17.056;2023-02-02T04:30:18;4.61;78.00
69225;DHT22;56333;51.306;17.056;2023-02-02T04:31:48;4.61;78.13
69225;DHT22;56333;51.306;17.056;2023-02-02T04:33:18;4.65;78.32
69225;DHT22;56333;51.306;17.056;2023-02-02T04:34:47;4.66;78.28
69225;DHT22;56333;51.306;17.056;2023-02-02T04:36:17;4.70;78.50
69225;DHT22;56333;51.306;17.056;2023-02-02T04:37:46;4.71;78.47
69225;DHT22;56333;51.306;17.056;2023-02-02T04:39:14;4.74;78.13
69225;DHT22;56333;51.306;17.056;2023-02-02T04:40:45;4.74;77.75
69225;DHT22;56333;51.306;17.056;2023-02-02T04:42:15;4.75;77.75
69225;DHT22;56333;51.306;17.056;2023-02-02T04:43:44;4.74;77.63
69225;DHT22;56333;51.306;17.056;2023-02-02T04:45:14;4.74;77.50
69225;DHT22;56333;51.306;17.056;2023-02-02T04:46:43;4.72;77.47
69225;DHT22;56333;51.306;17.056;2023-02-02T04:48:12;4.72;77.47
69225;DHT22;56333;51.306;17.056;2023-02-02T04:49:41;4.74;77.43
69225;DHT22;56333;51.306;17.056;2023-02-02T04:51:11;4.75;77.60
69225;DHT22;56333;51.306;17.056;2023-02-02T04:52:42;4.76;77.68
69225;DHT22;56333;51.306;17.056;2023-02-02T04:54:11;4.79;77.75
69225;DHT22;56333;51.306;17.056;2023-02-02T04:55:40;4.80;77.75
69225;DHT22;56333;51.306;17.056;2023-02-02T04:57:09;4.83;77.70
69225;DHT22;56333;51.306;17.056;2023-02-02T04:58:38;4.86;77.45
69225;DHT22;56333;51.306;17.056;2023-02-02T05:00:10;4.87;77.22
69225;DHT22;56333;51.306;17.056;2023-02-02T05:01:41;4.89;77.03
69225;DHT22;56333;51.306;17.056;2023-02-02T05:03:10;4.88;76.82
69225;DHT22;56333;51.306;17.056;2023-02-02T05:04:39;4.88;76.80
69225;DHT22;56333;51.306;17.056;2023-02-02T05:06:07;4.89;76.68
69225;DHT22;56333;51.306;17.056;2023-02-02T05:07:37;4.89;76.50
69225;DHT22;56333;51.306;17.056;2023-02-02T05:09:05;4.89;76.60
69225;DHT22;56333;51.306;17.056;2023-02-02T05:10:34;4.91;76.70
69225;DHT22;56333;51.306;17.056;2023-02-02T05:12:05;4.93;76.82
69225;DHT22;56333;51.306;17.056;2023-02-02T05:13:34;4.95;76.88
69225;DHT22;56333;51.306;17.056;2023-02-02T05:15:11;4.98;76.80
69225;DHT22;56333;51.306;17.056;2023-02-02T05:16:40;5.01;76.60
69225;DHT22;56333;51.306;17.056;2023-02-02T05:18:09;5.00;76.22
69225;DHT22;56333;51.306;17.056;2023-02-02T05:19:38;5.02;76.38
69225;DHT22;56333;51.306;17.056;2023-02-02T05:21:07;5.01;76.25
69225;DHT22;56333;51.306;17.056;2023-02-02T05:22:37;5.00;76.20
69225;DHT22;56333;51.306;17.056;2023-02-02T05:24:07;4.97;76.20
69225;DHT22;56333;51.306;17.056;2023-02-02T05:25:36;4.97;76.43
69225;DHT22;56333;51.306;17.056;2023-02-02T05:27:05;4.97;76.75
69225;DHT22;56333;51.306;17.056;2023-02-02T05:28:35;4.97;77.03
69225;DHT22;56333;51.306;17.056;2023-02-02T05:30:07;4.99;77.22
69225;DHT22;56333;51.306;17.056;2023-02-02T05:31:38;5.00;77.20
69225;DHT22;56333;51.306;17.056;2023-02-02T05:33:07;5.02;77.07
69225;DHT22;56333;51.306;17.056;2023-02-02T05:34:36;5.00;77.03
69225;DHT22;56333;51.306;17.056;2023-02-02T05:36:06;4.99;77.03
69225;DHT22;56333;51.306;17.056;2023-02-02T05:37:35;4.98;77.05
69225;DHT22;56333;51.306;17.056;2023-02-02T05:39:05;4.97;76.95
69225;DHT22;56333;51.306;17.056;2023-02-02T05:40:35;4.93;77.07
69225;DHT22;56333;51.306;17.056;2023-02-02T05:42:04;4.93;77.30
69225;DHT22;56333;51.306;17.056;2023-02-02T05:43:33;4.94;77.50
69225;DHT22;56333;51.306;17.056;2023-02-02T05:45:03;4.97;77.63
69225;DHT22;56333;51.306;17.056;2023-02-02T05:46:35;4.98;77.43
69225;DHT22;56333;51.306;17.056;2023-02-02T05:48:04;4.99;77.40
69225;DHT22;56333;51.306;17.056;2023-02-02T05:49:34;4.98;77.30
69225;DHT22;56333;51.306;17.056;2023-02-02T05:51:05;4.97;77.20
69225;DHT22;56333;51.306;17.056;2023-02-02T05:52:39;4.94;77.38
69225;DHT22;56333;51.306;17.056;2023-02-02T05:54:11;4.91;77.57
69225;DHT22;56333;51.306;17.056;2023-02-02T05:55:43;4.87;77.85
69225;DHT22;56333;51.306;17.056;2023-02-02T05:57:13;4.87;78.28
69225;DHT22;56333;51.306;17.056;2023-02-02T05:58:42;4.85;78.38
69225;DHT22;56333;51.306;17.056;2023-02-02T06:00:15;4.84;78.40
69225;DHT22;56333;51.306;17.056;2023-02-02T06:01:45;4.82;78.45
69225;DHT22;56333;51.306;17.056;2023-02-02T06:03:14;4.78;78.63
69225;DHT22;56333;51.306;17.056;2023-02-02T06:04:43;4.76;78.72
69225;DHT22;56333;51.306;17.056;2023-02-02T06:06:12;4.72;79.03
69225;DHT22;56333;51.306;17.056;2023-02-02T06:07:42;4.70;79.18
69225;DHT22;56333;51.306;17.056;2023-02-02T06:09:11;4.70;79.55
69225;DHT22;56333;51.306;17.056;2023-02-02T06:10:42;4.70;79.75
69225;DHT22;56333;51.306;17.056;2023-02-02T06:12:13;4.69;79.65
69225;DHT22;56333;51.306;17.056;2023-02-02T06:13:43;4.70;79.63
69225;DHT22;56333;51.306;17.056;2023-02-02T06:15:14;4.68;79.47
69225;DHT22;56333;51.306;17.056;2023-02-02T06:16:43;4.68;79.45
69225;DHT22;56333;51.306;17.056;2023-02-02T06:18:13;4.66;79.38
69225;DHT22;56333;51.306;17.056;2023-02-02T06:19:43;4.66;79.50
69225;DHT22;56333;51.306;17.056;2023-02-02T06:21:16;4.64;79.72
69225;DHT22;56333;51.306;17.056;2023-02-02T06:22:46;4.66;79.90
69225;DHT22;56333;51.306;17.056;2023-02-02T06:24:17;4.67;79.90
69225;DHT22;56333;51.306;17.056;2023-02-02T06:25:46;4.70;80.00
69225;DHT22;56333;51.306;17.056;2023-02-02T06:27:19;4.70;79.82
69225;DHT22;56333;51.306;17.056;2023-02-02T06:28:50;4.70;79.70
69225;DHT22;56333;51.306;17.056;2023-02-02T06:30:21;4.71;79.47
69225;DHT22;56333;51.306;17.056;2023-02-02T06:31:50;4.70;79.30
69225;DHT22;56333;51.306;17.056;2023-02-02T06:33:19;4.68;79.28
69225;DHT22;56333;51.306;17.056;2023-02-02T06:34:48;4.68;79.25
69225;DHT22;56333;51.306;17.056;2023-02-02T06:36:17;4.70;79.35
69225;DHT22;56333;51.306;17.056;2023-02-02T06:37:47;4.70;79.40
69225;DHT22;56333;51.306;17.056;2023-02-02T06:39:16;4.74;79.30
69225;DHT22;56333;51.306;17.056;2023-02-02T06:40:46;4.74;79.20
69225;DHT22;56333;51.306;17.056;2023-02-02T06:42:15;4.76;78.88
69225;DHT22;56333;51.306;17.056;2023-02-02T06:43:45;4.76;78.78
69225;DHT22;56333;51.306;17.056;2023-02-02T06:45:15;4.76;78.75
69225;DHT22;56333;51.306;17.056;2023-02-02T06:46:44;4.76;78.72
69225;DHT22;56333;51.306;17.056;2023-02-02T06:48:14;4.75;78.78
69225;DHT22;56333;51.306;17.056;2023-02-02T06:49:50;4.78;78.93
69225;DHT22;56333;51.306;17.056;2023-02-02T06:51:19;4.77;79.00
69225;DHT22;56333;51.306;17.056;2023-02-02T06:52:51;4.80;79.00
69225;DHT22;56333;51.306;17.056;2023-02-02T06:54:20;4.81;78.95
69225;DHT22;56333;51.306;17.056;2023-02-02T06:55:54;4.80;78.65
69225;DHT22;56333;51.306;17.056;2023-02-02T06:57:24;4.81;78.70
69225;DHT22;56333;51.306;17.056;2023-02-02T06:58:54;4.80;78.60
69225;DHT22;56333;51.306;17.056;2023-02-02T07:00:24;4.81;78.57
69225;DHT22;56333;51.306;17.056;2023-02-02T07:01:55;4.82;78.70
69225;DHT22;56333;51.306;17.056;2023-02-02T07:03:24;4.83;78.93
69225;DHT22;56333;51.306;17.056;2023-02-02T07:04:53;4.87;79.10
69225;DHT22;56333;51.306;17.056;2023-02-02T07:06:22;4.87;79.05
69225;DHT22;56333;51.306;17.056;2023-02-02T07:07:53;4.88;78.80
69225;DHT22;56333;51.306;17.056;2023-02-02T07:09:22;4.88;78.68
69225;DHT22;56333;51.306;17.056;2023-02-02T07:10:51;4.88;78.50
69225;DHT22;56333;51.306;17.056;2023-02-02T07:12:21;4.88;78.45
69225;DHT22;56333;51.306;17.056;2023-02-02T07:13:51;4.87;78.40
69225;DHT22;56333;51.306;17.056;2023-02-02T07:15:20;4.88;78.53
69225;DHT22;56333;51.306;17.056;2023-02-02T07:16:48;4.88;78.63
69225;DHT22;56333;51.306;17.056;2023-02-02T07:18:18;4.91;78.75
69225;DHT22;56333;51.306;17.056;2023-02-02T07:19:48;4.94;78.80
69225;DHT22;56333;51.306;17.056;2023-02-02T07:21:19;4.94;78.60
69225;DHT22;56333;51.306;17.056;2023-02-02T07:22:51;4.97;78.53
69225;DHT22;56333;51.306;17.056;2023-02-02T07:24:20;4.97;78.50
69225;DHT22;56333;51.306;17.056;2023-02-02T07:25:53;4.96;78.53
69225;DHT22;56333;51.306;17.056;2023-02-02T07:27:28;4.94;78.65
69225;DHT22;56333;51.306;17.056;2023-02-02T07:28:57;4.93;78.97
69225;DHT22;56333;51.306;17.056;2023-02-02T07:30:27;4.93;79.30
69225;DHT22;56333;51.306;17.056;2023-02-02T07:31:57;4.94;79.50
69225;DHT22;56333;51.306;17.056;2023-02-02T07:33:27;4.96;79.70
69225;DHT22;56333;51.306;17.056;2023-02-02T07:35:02;4.98;79.70
69225;DHT22;56333;51.306;17.056;2023-02-02T07:36:38;4.98;79.57
69225;DHT22;56333;51.306;17.056;2023-02-02T07:38:07;4.97;79.40
69225;DHT22;56333;51.306;17.056;2023-02-02T07:39:36;4.98;79.25
69225;DHT22;56333;51.306;17.056;2023-02-02T07:41:06;4.98;79.25
69225;DHT22;56333;51.306;17.056;2023-02-02T07:42:36;4.97;79.35
69225;DHT22;56333;51.306;17.056;2023-02-02T07:44:05;4.96;79.45
69225;DHT22;56333;51.306;17.056;2023-02-02T07:45:40;4.98;79.55
69225;DHT22;56333;51.306;17.056;2023-02-02T07:47:10;4.99;79.63
69225;DHT22;56333;51.306;17.056;2023-02-02T07:48:40;5.02;79.72
69225;DHT22;56333;51.306;17.056;2023-02-02T07:50:11;5.05;79.60
69225;DHT22;56333;51.306;17.056;2023-02-02T07:51:40;5.09;79.35
69225;DHT22;56333;51.306;17.056;2023-02-02T07:53:12;5.09;79.20
69225;DHT22;56333;51.306;17.056;2023-02-02T07:54:41;5.09;78.93
69225;DHT22;56333;51.306;17.056;2023-02-02T07:56:12;5.09;78.70
69225;DHT22;56333;51.306;17.056;2023-02-02T07:57:43;5.07;78.60
69225;DHT22;56333;51.306;17.056;2023-02-02T07:59:13;5.08;78.70
69225;DHT22;56333;51.306;17.056;2023-02-02T08:00:42;5.06;78.75
69225;DHT22;56333;51.306;17.056;2023-02-02T08:02:15;5.05;78.70
69225;DHT22;56333;51.306;17.056;2023-02-02T08:03:56;5.06;78.50
69225;DHT22;56333;51.306;17.056;2023-02-02T08:05:27;5.05;77.93
69225;DHT22;56333;51.306;17.056;2023-02-02T08:06:58;5.04;77.78
69225;DHT22;56333;51.306;17.056;2023-02-02T08:08:30;5.04;77.78
69225;DHT22;56333;51.306;17.056;2023-02-02T08:09:59;5.03;77.57
69225;DHT22;56333;51.306;17.056;2023-02-02T08:11:31;5.01;77.38
69225;DHT22;56333;51.306;17.056;2023-02-02T08:13:11;4.99;77.57
69225;DHT22;56333;51.306;17.056;2023-02-02T08:14:44;5.00;77.80
69225;DHT22;56333;51.306;17.056;2023-02-02T08:16:13;4.99;77.75
69225;DHT22;56333;51.306;17.056;2023-02-02T08:17:45;4.99;77.47
69225;DHT22;56333;51.306;17.056;2023-02-02T08:19:15;4.97;77.38
69225;DHT22;56333;51.306;17.056;2023-02-02T08:20:45;5.00;77.18
69225;DHT22;56333;51.306;17.056;2023-02-02T08:22:16;4.98;77.20
69225;DHT22;56333;51.306;17.056;2023-02-02T08:23:46;4.99;77.20
69225;DHT22;56333;51.306;17.056;2023-02-02T08:25:17;4.99;77.18
69225;DHT22;56333;51.306;17.056;2023-02-02T08:26:47;5.01;77.28
69225;DHT22;56333;51.306;17.056;2023-02-02T08:28:17;5.04;77.20
69225;DHT22;56333;51.306;17.056;2023-02-02T08:29:47;5.08;77.10
69225;DHT22;56333;51.306;17.056;2023-02-02T08:31:18;5.12;76.80
69225;DHT22;56333;51.306;17.056;2023-02-02T08:32:50;5.16;76.68
69225;DHT22;56333;51.306;17.056;2023-02-02T08:34:21;5.20;76.68
69225;DHT22;56333;51.306;17.056;2023-02-02T08:35:51;5.25;76.53
69225;DHT22;56333;51.306;17.056;2023-02-02T08:37:20;5.28;76.45
69225;DHT22;56333;51.306;17.056;2023-02-02T08:38:50;5.29;76.43
69225;DHT22;56333;51.306;17.056;2023-02-02T08:40:21;5.29;76.55
69225;DHT22;56333;51.306;17.056;2023-02-02T08:41:51;5.27;76.53
69225;DHT22;56333;51.306;17.056;2023-02-02T08:43:24;5.27;76.53
69225;DHT22;56333;51.306;17.056;2023-02-02T08:44:55;5.27;76.57
69225;DHT22;56333;51.306;17.056;2023-02-02T08:46:25;5.26;76.70
69225;DHT22;56333;51.306;17.056;2023-02-02T08:47:56;5.26;76.72
69225;DHT22;56333;51.306;17.056;2023-02-02T08:49:26;5.26;76.70
69225;DHT22;56333;51.306;17.056;2023-02-02T08:50:56;5.28;76.75
69225;DHT22;56333;51.306;17.056;2023-02-02T08:52:27;5.30;76.88
69225;DHT22;56333;51.306;17.056;2023-02-02T08:53:57;5.35;76.97
69225;DHT22;56333;51.306;17.056;2023-02-02T08:55:26;5.39;76.85
69225;DHT22;56333;51.306;17.056;2023-02-02T08:57:02;5.45;76.78
69225;DHT22;56333;51.306;17.056;2023-02-02T08:58:34;5.48;76.40
69225;DHT22;56333;51.306;17.056;2023-02-02T09:00:06;5.47;75.97
69225;DHT22;56333;51.306;17.056;2023-02-02T09:01:39;5.49;75.82
69225;DHT22;56333;51.306;17.056;2023-02-02T09:03:09;5.48;75.85
69225;DHT22;56333;51.306;17.056;2023-02-02T09:04:38;5.47;75.30
69225;DHT22;56333;51.306;17.056;2023-02-02T09:06:12;5.45;75.40
69225;DHT22;56333;51.306;17.056;2023-02-02T09:07:43;5.47;75.60
69225;DHT22;56333;51.306;17.056;2023-02-02T09:09:14;5.50;75.82
69225;DHT22;56333;51.306;17.056;2023-02-02T09:10:43;5.53;75.95
69225;DHT22;56333;51.306;17.056;2023-02-02T09:12:13;5.56;75.82
69225;DHT22;56333;51.306;17.056;2023-02-02T09:13:43;5.57;75.75
69225;DHT22;56333;51.306;17.056;2023-02-02T09:15:19;5.60;75.65
69225;DHT22;56333;51.306;17.056;2023-02-02T09:16:49;5.63;75.35
69225;DHT22;56333;51.306;17.056;2023-02-02T09:18:18;5.64;75.15
69225;DHT22;56333;51.306;17.056;2023-02-02T09:19:50;5.66;75.07
69225;DHT22;56333;51.306;17.056;2023-02-02T09:21:18;5.64;75.32
69225;DHT22;56333;51.306;17.056;2023-02-02T09:22:53;5.68;74.97
69225;DHT22;56333;51.306;17.056;2023-02-02T09:24:42;5.70;75.35
69225;DHT22;56333;51.306;17.056;2023-02-02T09:26:15;5.76;75.63
69225;DHT22;56333;51.306;17.056;2023-02-02T09:27:46;5.85;75.53
69225;DHT22;56333;51.306;17.056;2023-02-02T09:29:16;5.90;75.25
69225;DHT22;56333;51.306;17.056;2023-02-02T09:30:46;5.93;74.68
69225;DHT22;56333;51.306;17.056;2023-02-02T09:32:16;5.93;74.38
69225;DHT22;56333;51.306;17.056;2023-02-02T09:33:47;5.96;73.95
69225;DHT22;56333;51.306;17.056;2023-02-02T09:35:18;5.92;73.38
69225;DHT22;56333;51.306;17.056;2023-02-02T09:36:48;5.87;73.53
69225;DHT22;56333;51.306;17.056;2023-02-02T09:38:19;5.85;73.75
69225;DHT22;56333;51.306;17.056;2023-02-02T09:40:04;5.86;73.88
69225;DHT22;56333;51.306;17.056;2023-02-02T09:43:59;5.78;73.50
69225;DHT22;56333;51.306;17.056;2023-02-02T09:45:44;5.77;73.55
69225;DHT22;56333;51.306;17.056;2023-02-02T09:47:27;5.82;73.93